Time;durP1;ratioP1;P1;durP2;ratioP2;P2;SDS_P1;SDS_P2;PMS_P1;PMS_P2;Temp;Humidity;BMP_temperature;BMP_pressure;BME280_temperature;BME280_humidity;BME280_pressure;Samples;Min_cycle;Max_cycle;Signal;HPM_P1;HPM_P2
2021/05/14 00:00:17;;;;;;;5.35;4.68;;;;;;;;;;2073706;28;20112;-83
2021/05/14 00:01:18;;;;;;;6.03;4.90;;;;;;;;;;2073701;28;20375;-83
2021/05/14 00:02:19;;;;;;;5.75;4.88;;;;;;;;;;2068683;28;20083;-82
2021/05/14 00:03:21;;;;;;;6.93;5.35;;;;;;;;;;2066437;28;20703;-82
2021/05/14 00:04:22;;;;;;;6.28;5.28;;;;;;;;;;2066830;28;20066;-83
2021/05/14 00:05:23;;;;;;;5.43;4.72;;;;;;;;;;2068186;28;20085;-83
2021/05/14 00:06:24;;;;;;;7.75;5.50;;;;;;;;;;2076127;28;20448;-82
2021/05/14 00:07:25;;;;;;;8.30;4.60;;;;;;;;;;2075960;28;20045;-82
2021/05/14 00:08:26;;;;;;;7.72;5.20;;;;;;;;;;2075747;28;20124;-82
2021/05/14 00:09:27;;;;;;;7.20;4.47;;;;;;;;;;2072579;28;20045;-83
2021/05/14 00:10:29;;;;;;;9.13;4.95;;;;;;;;;;2062259;28;20037;-83
2021/05/14 00:11:30;;;;;;;5.57;4.47;;;;;;;;;;2075572;28;20097;-83
2021/05/14 00:12:31;;;;;;;5.78;4.18;;;;;;;;;;2076418;28;20052;-83
2021/05/14 00:13:32;;;;;;;6.25;4.35;;;;;;;;;;2077585;28;20041;-83
2021/05/14 00:14:33;;;;;;;6.85;4.72;;;;;;;;;;2086939;28;20033;-84
2021/05/14 00:15:34;;;;;;;7.13;4.50;;;;;;;;;;2082746;28;20418;-83
2021/05/14 00:16:35;;;;;;;5.57;4.25;;;;;;;;;;2079323;28;20049;-83
2021/05/14 00:17:36;;;;;;;5.00;4.10;;;;;;;;;;2075896;28;20037;-82
2021/05/14 00:18:37;;;;;;;6.03;4.40;;;;;;;;;;2077416;28;20033;-83
2021/05/14 00:19:38;;;;;;;4.93;4.35;;;;;;;;;;2076118;28;20101;-82
2021/05/14 00:20:41;;;;;;;4.93;4.22;;;;;;;;;;2076118;28;20054;-83
2021/05/14 00:21:43;;;;;;;3.65;3.17;;;;;;;;;;2075686;28;20034;-83
2021/05/14 00:22:44;;;;;;;5.88;4.18;;;;;;;;;;2077071;28;20468;-83
2021/05/14 00:23:45;;;;;;;5.80;4.28;;;;;;;;;;2076629;28;20260;-82
2021/05/14 00:24:49;;;;;;;5.80;4.60;;;;;;;;;;2073426;28;20677;-83
2021/05/14 00:25:50;;;;;;;4.57;4.00;;;;;;;;;;2069934;28;20038;-83
2021/05/14 00:26:59;;;;;;;6.47;4.10;;;;;;;;;;2081169;28;20381;-83
2021/05/14 00:28:00;;;;;;;5.82;4.30;;;;;;;;;;2076115;28;20056;-82
2021/05/14 00:29:01;;;;;;;5.93;4.20;;;;;;;;;;2076021;28;20025;-83
2021/05/14 00:30:03;;;;;;;3.88;3.35;;;;;;;;;;2065164;28;20041;-83
2021/05/14 00:31:04;;;;;;;3.97;3.58;;;;;;;;;;2059078;28;20132;-83
2021/05/14 00:32:06;;;;;;;6.43;4.05;;;;;;;;;;2066244;28;20151;-83
2021/05/14 00:33:07;;;;;;;3.65;3.13;;;;;;;;;;2077412;28;20065;-83
2021/05/14 00:34:08;;;;;;;4.68;3.90;;;;;;;;;;2076095;28;20040;-83
2021/05/14 00:35:09;;;;;;;4.93;3.45;;;;;;;;;;2077347;28;20041;-83
2021/05/14 00:36:10;;;;;;;3.75;3.45;;;;;;;;;;2075196;28;20079;-83
2021/05/14 00:37:11;;;;;;;5.78;4.38;;;;;;;;;;2069605;28;20041;-83
2021/05/14 00:38:14;;;;;;;4.25;3.85;;;;;;;;;;2070324;28;20033;-83
2021/05/14 00:39:15;;;;;;;4.82;3.90;;;;;;;;;;2074925;28;20115;-83
2021/05/14 00:40:16;;;;;;;4.90;3.47;;;;;;;;;;2077562;28;20037;-83
2021/05/14 00:41:17;;;;;;;4.30;3.75;;;;;;;;;;2074226;28;20033;-82
2021/05/14 00:42:18;;;;;;;6.07;3.90;;;;;;;;;;2059993;28;20042;-83
2021/05/14 00:43:21;;;;;;;2.53;2.33;;;;;;;;;;2067806;28;20065;-84
2021/05/14 00:44:25;;;;;;;3.88;3.47;;;;;;;;;;2081943;28;20045;-83
2021/05/14 00:45:26;;;;;;;4.28;3.88;;;;;;;;;;2073547;28;20096;-83
2021/05/14 00:46:27;;;;;;;4.53;3.92;;;;;;;;;;2075322;28;20496;-83
2021/05/14 00:47:29;;;;;;;7.22;3.65;;;;;;;;;;2078035;28;20259;-83
2021/05/14 00:48:31;;;;;;;4.88;3.85;;;;;;;;;;2076799;28;20443;-83
2021/05/14 00:49:32;;;;;;;5.07;3.63;;;;;;;;;;2065725;28;20162;-82
2021/05/14 00:50:33;;;;;;;4.18;3.45;;;;;;;;;;2041295;28;20036;-82
2021/05/14 00:51:34;;;;;;;5.88;3.40;;;;;;;;;;2066736;28;20044;-83
2021/05/14 00:52:35;;;;;;;5.15;3.65;;;;;;;;;;2065732;28;20050;-82
2021/05/14 00:53:36;;;;;;;3.28;2.97;;;;;;;;;;2067489;28;20112;-82
2021/05/14 00:54:38;;;;;;;3.13;2.78;;;;;;;;;;2073596;28;20034;-82
2021/05/14 00:55:39;;;;;;;;;;;;;;;;;;2065705;28;20061;-82
2021/05/14 00:56:40;;;;;;;4.65;3.00;;;;;;;;;;2066345;28;20302;-82
2021/05/14 00:57:41;;;;;;;6.00;3.70;;;;;;;;;;2059839;28;20966;-82
2021/05/14 00:58:42;;;;;;;5.07;3.80;;;;;;;;;;2067573;28;20211;-82
2021/05/14 00:59:47;;;;;;;3.88;3.22;;;;;;;;;;2071064;28;20259;-82
2021/05/14 01:00:48;;;;;;;4.03;3.33;;;;;;;;;;2065643;28;20041;-82
2021/05/14 01:01:49;;;;;;;3.28;2.95;;;;;;;;;;2073846;28;20037;-82
2021/05/14 01:02:52;;;;;;;4.18;3.72;;;;;;;;;;2070205;28;20056;-82
2021/05/14 01:03:53;;;;;;;4.30;3.33;;;;;;;;;;2076953;28;20029;-82
2021/05/14 01:04:54;;;;;;;3.92;3.15;;;;;;;;;;2076143;28;20039;-82
2021/05/14 01:05:56;;;;;;;3.67;3.25;;;;;;;;;;2071264;28;20037;-82
2021/05/14 01:06:57;;;;;;;3.97;3.40;;;;;;;;;;2059604;28;20068;-81
2021/05/14 01:07:58;;;;;;;3.05;2.75;;;;;;;;;;2055732;28;20065;-82
2021/05/14 01:09:00;;;;;;;3.65;2.97;;;;;;;;;;2066555;28;20042;-82
2021/05/14 01:10:01;;;;;;;3.63;3.17;;;;;;;;;;2067149;28;20368;-82
2021/05/14 01:11:03;;;;;;;3.38;3.00;;;;;;;;;;2062080;28;20046;-82
2021/05/14 01:12:05;;;;;;;3.10;2.80;;;;;;;;;;2068076;28;20584;-82
2021/05/14 01:13:06;;;;;;;3.60;2.80;;;;;;;;;;2075839;28;20091;-82
2021/05/14 01:14:08;;;;;;;3.95;3.25;;;;;;;;;;2075946;28;20240;-82
2021/05/14 01:15:09;;;;;;;3.65;3.03;;;;;;;;;;2063938;28;20036;-82
2021/05/14 01:16:10;;;;;;;3.88;3.33;;;;;;;;;;2063927;28;20057;-82
2021/05/14 01:17:11;;;;;;;3.97;2.83;;;;;;;;;;2055956;28;20272;-82
2021/05/14 01:18:12;;;;;;;3.22;2.60;;;;;;;;;;2072912;28;20044;-82
2021/05/14 01:19:13;;;;;;;5.05;3.58;;;;;;;;;;2047204;28;20050;-82
2021/05/14 01:20:15;;;;;;;3.38;2.67;;;;;;;;;;2065715;28;20042;-82
2021/05/14 01:21:16;;;;;;;;;;;;;;;;;;2076836;28;20048;-82
2021/05/14 01:22:18;;;;;;;3.10;2.13;;;;;;;;;;2067214;28;19920;-82
2021/05/14 01:23:20;;;;;;;3.35;2.42;;;;;;;;;;2060948;28;20043;-82
2021/05/14 01:24:21;;;;;;;4.05;2.90;;;;;;;;;;2066128;28;20034;-82
2021/05/14 01:25:22;;;;;;;3.53;2.67;;;;;;;;;;2065807;28;20144;-82
2021/05/14 01:26:26;;;;;;;3.50;3.20;;;;;;;;;;2070850;28;20050;-82
2021/05/14 01:27:27;;;;;;;4.50;2.63;;;;;;;;;;2075420;28;20040;-82
2021/05/14 01:28:28;;;;;;;3.88;3.00;;;;;;;;;;2077072;28;20038;-82
2021/05/14 01:29:29;;;;;;;3.72;3.03;;;;;;;;;;2065248;28;20037;-82
2021/05/14 01:30:31;;;;;;;3.15;2.63;;;;;;;;;;2071211;28;20933;-82
2021/05/14 01:31:32;;;;;;;3.00;2.70;;;;;;;;;;2076599;28;20091;-82
2021/05/14 01:32:33;;;;;;;3.10;2.83;;;;;;;;;;2076333;28;20083;-83
2021/05/14 01:33:35;;;;;;;6.13;4.03;;;;;;;;;;2077002;28;20034;-82
2021/05/14 01:34:36;;;;;;;4.00;3.05;;;;;;;;;;2069818;28;20277;-82
2021/05/14 01:35:37;;;;;;;3.88;2.85;;;;;;;;;;2068265;28;20112;-82
2021/05/14 01:36:39;;;;;;;3.45;3.00;;;;;;;;;;2072204;28;20505;-83
2021/05/14 01:37:41;;;;;;;3.95;3.45;;;;;;;;;;2073742;28;20097;-82
2021/05/14 01:38:42;;;;;;;;;;;;;;;;;;2075301;28;20033;-82
2021/05/14 01:39:43;;;;;;;3.42;3.10;;;;;;;;;;2066921;28;19906;-82
2021/05/14 01:40:44;;;;;;;3.47;3.17;;;;;;;;;;2075910;28;20076;-83
2021/05/14 01:41:45;;;;;;;3.58;3.28;;;;;;;;;;2075857;28;20029;-82
2021/05/14 01:42:49;;;;;;;3.83;3.35;;;;;;;;;;2071938;28;20057;-82
2021/05/14 01:43:50;;;;;;;4.75;3.03;;;;;;;;;;2068441;28;20041;-82
2021/05/14 01:44:51;;;;;;;3.78;3.40;;;;;;;;;;2069839;28;20042;-82
2021/05/14 01:45:53;;;;;;;3.42;3.13;;;;;;;;;;2073604;28;20037;-82
2021/05/14 01:46:54;;;;;;;4.32;3.92;;;;;;;;;;2069382;28;20247;-82
2021/05/14 01:47:55;;;;;;;4.38;3.97;;;;;;;;;;2068166;28;20041;-83
2021/05/14 01:48:56;;;;;;;5.15;4.25;;;;;;;;;;2074291;28;21267;-83
2021/05/14 01:50:00;;;;;;;3.90;3.50;;;;;;;;;;2064134;28;20049;-83
2021/05/14 01:51:15;;;;;;;3.78;3.30;;;;;;;;;;2064832;28;20125;-83
2021/05/14 01:52:16;;;;;;;3.85;3.50;;;;;;;;;;2074050;28;20091;-83
2021/05/14 01:53:17;;;;;;;5.78;3.50;;;;;;;;;;2074335;28;20097;-83
2021/05/14 01:54:18;;;;;;;3.92;3.53;;;;;;;;;;2075763;28;20064;-83
2021/05/14 01:55:19;;;;;;;4.47;3.53;;;;;;;;;;2076839;28;20029;-83
2021/05/14 01:56:20;;;;;;;4.57;2.92;;;;;;;;;;2070790;28;20042;-83
2021/05/14 01:57:21;;;;;;;3.55;2.65;;;;;;;;;;2070956;28;20041;-82
2021/05/14 01:58:22;;;;;;;6.75;3.17;;;;;;;;;;2074419;28;20041;-82
2021/05/14 01:59:23;;;;;;;4.82;3.45;;;;;;;;;;2069060;28;20050;-83
2021/05/14 02:00:24;;;;;;;3.83;3.33;;;;;;;;;;2066214;28;20053;-82
2021/05/14 02:01:26;;;;;;;3.92;3.53;;;;;;;;;;2075397;28;20030;-83
2021/05/14 02:02:27;;;;;;;;;;;;;;;;;;2078498;28;20056;-83
2021/05/14 02:03:28;;;;;;;3.47;3.17;;;;;;;;;;2084623;28;19980;-83
2021/05/14 02:04:29;;;;;;;4.13;3.72;;;;;;;;;;2084452;28;20048;-83
2021/05/14 02:05:30;;;;;;;4.25;3.33;;;;;;;;;;2084773;28;20064;-83
2021/05/14 02:06:31;;;;;;;5.22;3.88;;;;;;;;;;2069379;28;20037;-82
2021/05/14 02:07:32;;;;;;;5.13;3.90;;;;;;;;;;2074826;28;20518;-83
2021/05/14 02:08:34;;;;;;;4.25;3.58;;;;;;;;;;2076414;28;20113;-82
2021/05/14 02:09:35;;;;;;;3.47;3.00;;;;;;;;;;2071373;28;20658;-83
2021/05/14 02:10:36;;;;;;;6.97;4.30;;;;;;;;;;2058932;28;20082;-82
2021/05/14 02:11:37;;;;;;;4.90;3.20;;;;;;;;;;2069487;28;20037;-82
2021/05/14 02:12:38;;;;;;;3.40;3.10;;;;;;;;;;2075565;28;20440;-82
2021/05/14 02:13:40;;;;;;;3.47;3.17;;;;;;;;;;2075271;28;20034;-82
2021/05/14 02:14:41;;;;;;;3.85;3.20;;;;;;;;;;2078891;28;20042;-82
2021/05/14 02:15:43;;;;;;;4.97;4.03;;;;;;;;;;2079101;28;20096;-82
2021/05/14 02:16:44;;;;;;;4.28;3.13;;;;;;;;;;2078164;28;20117;-83
2021/05/14 02:17:45;;;;;;;4.05;3.65;;;;;;;;;;2067868;28;20132;-82
2021/05/14 02:18:46;;;;;;;4.00;3.40;;;;;;;;;;2066610;28;20049;-82
2021/05/14 02:19:47;;;;;;;;;;;;;;;;;;2075533;28;20536;-83
2021/05/14 02:20:48;;;;;;;3.15;2.85;;;;;;;;;;2083916;28;19911;-82
2021/05/14 02:21:49;;;;;;;6.80;3.63;;;;;;;;;;2072121;28;20097;-82
2021/05/14 02:22:50;;;;;;;4.35;3.80;;;;;;;;;;2060607;28;20044;-83
2021/05/14 02:23:52;;;;;;;4.15;3.28;;;;;;;;;;2066688;28;20065;-82
2021/05/14 02:24:56;;;;;;;3.67;3.22;;;;;;;;;;2071645;28;20034;-83
2021/05/14 02:25:57;;;;;;;4.45;3.60;;;;;;;;;;2070358;28;20126;-83
2021/05/14 02:26:58;;;;;;;4.82;3.70;;;;;;;;;;2067765;28;20050;-83
2021/05/14 02:27:59;;;;;;;4.22;3.35;;;;;;;;;;2067350;28;20041;-83
2021/05/14 02:29:00;;;;;;;3.78;3.25;;;;;;;;;;2066763;28;20803;-83
2021/05/14 02:30:02;;;;;;;3.85;3.40;;;;;;;;;;2064544;28;20050;-83
2021/05/14 02:31:03;;;;;;;4.03;3.33;;;;;;;;;;2075074;28;20282;-82
2021/05/14 02:32:05;;;;;;;4.50;3.47;;;;;;;;;;2083943;28;20098;-82
2021/05/14 02:33:07;;;;;;;4.45;3.50;;;;;;;;;;2083823;28;20053;-82
2021/05/14 02:34:08;;;;;;;5.57;3.25;;;;;;;;;;2084452;28;20039;-83
2021/05/14 02:35:10;;;;;;;3.25;2.90;;;;;;;;;;2083984;28;20033;-83
2021/05/14 02:36:10;;;;;;;;;;;;;;;;;;2084423;28;20041;-83
2021/05/14 02:37:12;;;;;;;4.32;3.60;;;;;;;;;;2075818;28;20337;-83
2021/05/14 02:38:13;;;;;;;4.32;3.70;;;;;;;;;;2075256;28;20709;-82
2021/05/14 02:39:14;;;;;;;4.03;3.53;;;;;;;;;;2074908;28;20071;-83
2021/05/14 02:40:15;;;;;;;4.30;3.60;;;;;;;;;;2071111;28;20052;-83
2021/05/14 02:41:16;;;;;;;;;;;;;;;;;;2061982;28;20033;-82
2021/05/14 02:42:17;;;;;;;4.35;3.53;;;;;;;;;;2067771;28;19916;-82
2021/05/14 02:43:18;;;;;;;4.03;3.30;;;;;;;;;;2074077;28;20091;-83
2021/05/14 02:44:19;;;;;;;4.85;3.80;;;;;;;;;;2077981;28;20048;-83
2021/05/14 02:45:20;;;;;;;5.18;3.67;;;;;;;;;;2083213;28;20037;-83
2021/05/14 02:46:21;;;;;;;4.70;3.70;;;;;;;;;;2074615;28;20436;-83
2021/05/14 02:47:23;;;;;;;4.22;3.40;;;;;;;;;;2075600;28;20038;-83
2021/05/14 02:48:24;;;;;;;4.03;3.60;;;;;;;;;;2083444;28;20509;-83
2021/05/14 02:49:25;;;;;;;6.97;4.13;;;;;;;;;;2083841;28;20041;-83
2021/05/14 02:50:26;;;;;;;4.82;3.58;;;;;;;;;;2064703;28;20477;-83
2021/05/14 02:51:27;;;;;;;3.45;3.15;;;;;;;;;;2065316;28;20135;-83
2021/05/14 02:52:28;;;;;;;3.65;3.30;;;;;;;;;;2067748;28;20595;-83
2021/05/14 02:53:29;;;;;;;4.53;3.53;;;;;;;;;;2073985;28;20053;-83
2021/05/14 02:54:33;;;;;;;4.22;3.40;;;;;;;;;;2067491;28;20030;-83
2021/05/14 02:55:34;;;;;;;4.03;3.60;;;;;;;;;;2072874;28;20044;-83
2021/05/14 02:56:35;;;;;;;3.67;3.38;;;;;;;;;;2074876;28;20300;-83
2021/05/14 02:57:36;;;;;;;4.40;3.92;;;;;;;;;;2071440;28;20168;-83
2021/05/14 02:58:37;;;;;;;3.47;2.83;;;;;;;;;;2073236;28;20076;-83
2021/05/14 02:59:38;;;;;;;4.75;3.30;;;;;;;;;;2085065;28;23055;-83
2021/05/14 03:00:40;;;;;;;4.57;3.63;;;;;;;;;;2080290;28;20117;-83
2021/05/14 03:01:41;;;;;;;3.30;3.00;;;;;;;;;;2076754;28;20036;-83
2021/05/14 03:02:42;;;;;;;4.45;3.70;;;;;;;;;;2068022;28;20086;-83
2021/05/14 03:03:43;;;;;;;6.15;3.00;;;;;;;;;;2061839;28;20475;-83
2021/05/14 03:04:44;;;;;;;3.70;3.30;;;;;;;;;;2074821;28;20041;-83
2021/05/14 03:05:45;;;;;;;3.85;3.45;;;;;;;;;;2085120;28;20052;-83
2021/05/14 03:06:46;;;;;;;6.72;3.15;;;;;;;;;;2075559;28;20060;-83
2021/05/14 03:07:47;;;;;;;;;;;;;;;;;;2067196;28;20089;-83
2021/05/14 03:08:49;;;;;;;3.38;2.75;;;;;;;;;;2073064;28;19995;-83
2021/05/14 03:09:50;;;;;;;3.70;3.28;;;;;;;;;;2076107;28;20037;-83
2021/05/14 03:10:51;;;;;;;3.97;3.10;;;;;;;;;;2076190;28;20049;-83
2021/05/14 03:11:52;;;;;;;5.30;3.28;;;;;;;;;;2077154;28;20480;-83
2021/05/14 03:12:53;;;;;;;3.75;3.15;;;;;;;;;;2067553;28;20430;-83
2021/05/14 03:13:54;;;;;;;3.17;2.88;;;;;;;;;;2061470;28;20546;-83
2021/05/14 03:14:55;;;;;;;3.53;2.90;;;;;;;;;;2066347;28;20034;-83
2021/05/14 03:15:56;;;;;;;3.05;2.67;;;;;;;;;;2070434;28;20041;-82
2021/05/14 03:16:59;;;;;;;4.30;3.05;;;;;;;;;;2071806;28;20054;-82
2021/05/14 03:18:00;;;;;;;4.72;2.85;;;;;;;;;;2074285;28;20527;-83
2021/05/14 03:19:01;;;;;;;2.97;2.70;;;;;;;;;;2075149;28;20136;-83
2021/05/14 03:20:03;;;;;;;3.20;2.90;;;;;;;;;;2083803;28;20040;-83
2021/05/14 03:21:04;;;;;;;3.95;2.92;;;;;;;;;;2082806;28;20037;-83
2021/05/14 03:22:05;;;;;;;3.58;3.28;;;;;;;;;;2070438;28;20034;-83
2021/05/14 03:23:06;;;;;;;3.47;3.03;;;;;;;;;;2058921;28;20049;-83
2021/05/14 03:24:08;;;;;;;3.67;3.20;;;;;;;;;;2066996;28;20171;-83
2021/05/14 03:25:10;;;;;;;4.03;3.15;;;;;;;;;;2075462;28;20064;-82
2021/05/14 03:26:11;;;;;;;3.50;3.20;;;;;;;;;;2067945;28;20546;-83
2021/05/14 03:27:12;;;;;;;4.00;3.38;;;;;;;;;;2067932;28;20060;-83
2021/05/14 03:28:13;;;;;;;3.75;2.70;;;;;;;;;;2084026;28;20334;-84
2021/05/14 03:29:14;;;;;;;;;;;;;;;;;;2083280;28;20037;-83
2021/05/14 03:30:16;;;;;;;3.45;2.78;;;;;;;;;;2084061;28;20138;-83
2021/05/14 03:31:17;;;;;;;;;;;;;;;;;;2083762;28;20131;-84
2021/05/14 03:32:18;;;;;;;3.75;2.63;;;;;;;;;;2076032;28;20003;-83
2021/05/14 03:33:21;;;;;;;3.70;2.97;;;;;;;;;;2071535;28;20037;-83
2021/05/14 03:34:22;;;;;;;4.32;3.00;;;;;;;;;;2070418;28;20041;-83
2021/05/14 03:35:23;;;;;;;4.93;3.10;;;;;;;;;;2078184;28;20049;-83
2021/05/14 03:36:25;;;;;;;4.13;3.72;;;;;;;;;;2074481;28;20045;-83
2021/05/14 03:37:26;;;;;;;3.80;3.22;;;;;;;;;;2076074;28;20044;-83
2021/05/14 03:38:33;;;;;;;3.47;3.10;;;;;;;;;;2075106;28;20041;-83
2021/05/14 03:39:43;;;;;;;4.22;3.20;;;;;;;;;;2076513;28;20041;-84
2021/05/14 03:40:44;;;;;;;4.13;3.10;;;;;;;;;;2071183;28;20111;-83
2021/05/14 03:42:47;;;;;;;4.05;3.10;;;;;;;;;;2081614;28;20052;-83
2021/05/14 03:43:48;;;;;;;4.32;3.55;;;;;;;;;;2075189;28;20048;-83
2021/05/14 03:44:49;;;;;;;3.55;3.25;;;;;;;;;;2066198;28;20081;-84
2021/05/14 03:45:50;;;;;;;3.10;2.80;;;;;;;;;;2075171;28;20049;-84
2021/05/14 03:46:51;;;;;;;4.00;3.13;;;;;;;;;;2080197;28;20033;-84
2021/05/14 03:47:55;;;;;;;5.25;3.03;;;;;;;;;;2074065;28;20048;-84
2021/05/14 03:48:57;;;;;;;3.05;2.78;;;;;;;;;;2067765;28;20955;-83
2021/05/14 03:49:58;;;;;;;;;;;;;;;;;;2063413;28;20166;-84
2021/05/14 03:50:59;;;;;;;3.65;2.53;;;;;;;;;;2069840;28;19963;-84
2021/05/14 03:52:00;;;;;;;3.15;2.83;;;;;;;;;;2070304;28;20041;-84
2021/05/14 03:53:02;;;;;;;4.03;3.60;;;;;;;;;;2056884;28;20115;-83
2021/05/14 03:54:03;;;;;;;4.07;3.08;;;;;;;;;;2067909;28;20393;-84
2021/05/14 03:55:05;;;;;;;3.50;3.20;;;;;;;;;;2069349;28;20673;-83
2021/05/14 03:56:06;;;;;;;5.28;3.50;;;;;;;;;;2071277;28;20033;-83
2021/05/14 03:57:07;;;;;;;4.18;3.47;;;;;;;;;;2068995;28;20303;-83
2021/05/14 03:58:08;;;;;;;;;;;;;;;;;;2061262;28;20050;-83
2021/05/14 03:59:09;;;;;;;3.70;3.30;;;;;;;;;;2061578;28;19910;-83
2021/05/14 04:00:11;;;;;;;3.72;3.35;;;;;;;;;;2059295;28;20333;-84
2021/05/14 04:01:12;;;;;;;3.90;3.03;;;;;;;;;;2067019;28;20030;-83
2021/05/14 04:02:13;;;;;;;4.10;3.70;;;;;;;;;;2076377;28;20112;-84
2021/05/14 04:03:15;;;;;;;3.97;3.58;;;;;;;;;;2070592;28;20026;-83
2021/05/14 04:04:17;;;;;;;4.85;3.80;;;;;;;;;;2052721;28;20317;-83
2021/05/14 04:05:19;;;;;;;4.60;2.90;;;;;;;;;;2068641;28;20148;-83
2021/05/14 04:06:20;;;;;;;4.15;3.10;;;;;;;;;;2073679;28;20225;-83
2021/05/14 04:07:22;;;;;;;3.20;2.90;;;;;;;;;;2075623;28;20263;-84
2021/05/14 04:08:24;;;;;;;3.83;3.42;;;;;;;;;;2075596;28;20259;-83
2021/05/14 04:09:31;;;;;;;4.40;3.50;;;;;;;;;;2074081;28;20104;-83
2021/05/14 04:11:05;;;;;;;3.65;3.28;;;;;;;;;;2071750;28;20045;-83
2021/05/14 04:14:34;;;;;;;3.25;2.95;;;;;;;;;;2073401;28;20045;-84
2021/05/14 04:15:35;;;;;;;4.38;3.65;;;;;;;;;;2064593;28;20071;-83
2021/05/14 04:16:36;;;;;;;4.13;3.72;;;;;;;;;;2067278;28;20029;-83
2021/05/14 04:17:37;;;;;;;5.07;4.20;;;;;;;;;;2064586;28;20034;-83
2021/05/14 04:18:39;;;;;;;4.63;3.63;;;;;;;;;;2066219;28;20046;-83
2021/05/14 04:19:40;;;;;;;3.20;2.75;;;;;;;;;;2068678;28;20142;-83
2021/05/14 04:20:41;;;;;;;4.53;3.58;;;;;;;;;;2068423;28;20053;-83
2021/05/14 04:21:42;;;;;;;3.85;3.45;;;;;;;;;;2072076;28;20061;-83
2021/05/14 04:22:43;;;;;;;4.10;3.70;;;;;;;;;;2065716;28;20042;-83
2021/05/14 04:23:44;;;;;;;;;;;;;;;;;;2075580;28;20058;-83
2021/05/14 04:24:45;;;;;;;3.92;3.47;;;;;;;;;;2084027;28;19913;-84
2021/05/14 04:25:47;;;;;;;4.35;3.95;;;;;;;;;;2071721;28;20041;-84
2021/05/14 04:26:49;;;;;;;3.85;3.45;;;;;;;;;;2070772;28;20057;-84
2021/05/14 04:27:50;;;;;;;4.55;3.30;;;;;;;;;;2069809;28;20045;-83
2021/05/14 04:28:53;;;;;;;4.05;3.45;;;;;;;;;;2073127;28;20045;-84
2021/05/14 04:29:54;;;;;;;4.05;3.65;;;;;;;;;;2071075;28;20046;-84
2021/05/14 04:30:55;;;;;;;4.53;3.38;;;;;;;;;;2063940;28;20041;-83
2021/05/14 04:31:56;;;;;;;3.80;3.40;;;;;;;;;;2074385;28;20041;-83
2021/05/14 04:32:59;;;;;;;3.92;3.53;;;;;;;;;;2070963;28;20121;-84
2021/05/14 04:34:00;;;;;;;4.32;3.15;;;;;;;;;;2070023;28;20033;-84
2021/05/14 04:35:01;;;;;;;4.72;3.90;;;;;;;;;;2069143;28;20558;-84
2021/05/14 04:36:03;;;;;;;3.85;3.40;;;;;;;;;;2070144;28;20916;-83
2021/05/14 04:37:04;;;;;;;4.25;3.40;;;;;;;;;;2070031;28;20641;-83
2021/05/14 04:38:05;;;;;;;4.05;3.65;;;;;;;;;;2076293;28;20053;-83
2021/05/14 04:39:07;;;;;;;3.55;3.25;;;;;;;;;;2074561;28;20049;-84
2021/05/14 04:40:08;;;;;;;3.30;3.00;;;;;;;;;;2064791;28;20249;-83
2021/05/14 04:41:09;;;;;;;3.42;3.13;;;;;;;;;;2079566;28;20067;-83
2021/05/14 04:42:11;;;;;;;4.72;3.63;;;;;;;;;;2071788;28;20052;-83
2021/05/14 04:43:12;;;;;;;3.22;2.42;;;;;;;;;;2069871;28;20630;-83
2021/05/14 04:44:15;;;;;;;2.70;2.50;;;;;;;;;;2067601;28;20151;-83
2021/05/14 04:45:16;;;;;;;3.20;2.90;;;;;;;;;;2068366;28;20034;-83
2021/05/14 04:46:17;;;;;;;4.72;3.20;;;;;;;;;;2072296;28;20034;-83
2021/05/14 04:47:19;;;;;;;3.15;2.85;;;;;;;;;;2062944;28;20133;-83
2021/05/14 04:48:20;;;;;;;4.10;3.22;;;;;;;;;;2063974;28;20104;-82
2021/05/14 04:49:22;;;;;;;3.40;2.85;;;;;;;;;;2067504;28;20042;-83
2021/05/14 04:50:23;;;;;;;4.63;3.33;;;;;;;;;;2076347;28;20053;-83
2021/05/14 04:51:28;;;;;;;2.72;2.47;;;;;;;;;;2075032;28;20163;-83
2021/05/14 04:52:30;;;;;;;3.13;2.70;;;;;;;;;;2065714;28;20068;-84
2021/05/14 04:53:31;;;;;;;2.97;2.70;;;;;;;;;;2068258;28;20097;-83
2021/05/14 04:54:33;;;;;;;3.50;2.50;;;;;;;;;;2077562;28;20470;-83
2021/05/14 04:55:34;;;;;;;2.42;2.22;;;;;;;;;;2077011;28;20517;-83
2021/05/14 04:56:35;;;;;;;2.90;2.60;;;;;;;;;;2076898;28;20045;-83
2021/05/14 04:57:36;;;;;;;3.63;2.50;;;;;;;;;;2074915;28;20148;-84
2021/05/14 04:58:37;;;;;;;4.35;2.67;;;;;;;;;;2074009;28;20041;-83
2021/05/14 04:59:38;;;;;;;4.18;2.70;;;;;;;;;;2077991;28;20037;-83
2021/05/14 05:00:39;;;;;;;3.10;2.28;;;;;;;;;;2074504;28;20037;-83
2021/05/14 05:01:41;;;;;;;2.78;2.45;;;;;;;;;;2074629;28;20026;-83
2021/05/14 05:02:42;;;;;;;2.70;2.50;;;;;;;;;;2074383;28;20068;-83
2021/05/14 05:03:44;;;;;;;3.08;2.78;;;;;;;;;;2072473;28;20080;-83
2021/05/14 05:04:45;;;;;;;3.55;2.70;;;;;;;;;;2080046;28;20059;-83
2021/05/14 05:05:48;;;;;;;3.35;3.05;;;;;;;;;;2083406;28;20087;-83
2021/05/14 05:06:49;;;;;;;3.10;2.80;;;;;;;;;;2074455;28;20124;-83
2021/05/14 05:07:50;;;;;;;4.85;3.20;;;;;;;;;;2071918;28;20043;-83
2021/05/14 05:08:52;;;;;;;2.47;2.28;;;;;;;;;;2076693;28;20175;-83
2021/05/14 05:09:53;;;;;;;3.20;2.90;;;;;;;;;;2078209;28;20033;-82
2021/05/14 05:10:54;;;;;;;3.17;2.30;;;;;;;;;;2077504;28;20041;-83
2021/05/14 05:11:55;;;;;;;3.03;2.60;;;;;;;;;;2070408;28;20127;-83
2021/05/14 05:12:56;;;;;;;2.97;2.55;;;;;;;;;;2070976;28;20045;-83
2021/05/14 05:13:57;;;;;;;3.08;2.53;;;;;;;;;;2075794;28;20128;-83
2021/05/14 05:14:58;;;;;;;3.33;2.42;;;;;;;;;;2076284;28;20043;-83
2021/05/14 05:15:59;;;;;;;5.97;2.63;;;;;;;;;;2066745;28;20093;-83
2021/05/14 05:17:00;;;;;;;2.53;2.05;;;;;;;;;;2066787;28;20150;-83
2021/05/14 05:18:01;;;;;;;2.35;2.15;;;;;;;;;;2075281;28;20029;-83
2021/05/14 05:19:02;;;;;;;2.60;2.40;;;;;;;;;;2074562;28;20532;-83
2021/05/14 05:20:04;;;;;;;3.58;2.20;;;;;;;;;;2071778;28;20041;-83
2021/05/14 05:21:05;;;;;;;2.20;2.00;;;;;;;;;;2076748;28;20165;-82
2021/05/14 05:22:06;;;;;;;2.25;1.88;;;;;;;;;;2075711;28;20227;-83
2021/05/14 05:23:07;;;;;;;2.08;1.88;;;;;;;;;;2072820;28;21420;-83
2021/05/14 05:24:09;;;;;;;2.72;2.15;;;;;;;;;;2072116;28;21532;-83
2021/05/14 05:25:11;;;;;;;2.47;2.28;;;;;;;;;;2068945;28;20048;-83
2021/05/14 05:26:12;;;;;;;2.30;2.03;;;;;;;;;;2067539;28;20107;-83
2021/05/14 05:27:13;;;;;;;2.03;1.83;;;;;;;;;;2070702;28;20021;-83
2021/05/14 05:28:15;;;;;;;2.50;2.30;;;;;;;;;;2076575;28;20049;-82
2021/05/14 05:29:16;;;;;;;2.40;2.20;;;;;;;;;;2074736;28;20048;-83
2021/05/14 05:30:19;;;;;;;2.70;2.50;;;;;;;;;;2067485;28;20164;-82
2021/05/14 05:31:20;;;;;;;3.17;2.28;;;;;;;;;;2076521;28;20033;-83
2021/05/14 05:32:21;;;;;;;3.17;2.47;;;;;;;;;;2076522;28;21067;-83
2021/05/14 05:33:22;;;;;;;3.42;2.53;;;;;;;;;;2066280;28;20083;-83
2021/05/14 05:34:24;;;;;;;3.35;2.47;;;;;;;;;;2077490;28;20048;-83
2021/05/14 05:35:25;;;;;;;2.83;2.40;;;;;;;;;;2069304;28;20048;-83
2021/05/14 05:36:26;;;;;;;5.05;2.58;;;;;;;;;;2060983;28;20050;-83
2021/05/14 05:37:27;;;;;;;2.38;2.17;;;;;;;;;;2070725;28;20133;-83
2021/05/14 05:38:30;;;;;;;2.50;1.98;;;;;;;;;;2073588;28;20048;-83
2021/05/14 05:39:31;;;;;;;2.13;1.95;;;;;;;;;;2077308;28;20041;-83
2021/05/14 05:40:32;;;;;;;2.63;2.17;;;;;;;;;;2079969;28;20041;-83
2021/05/14 05:41:33;;;;;;;2.70;2.45;;;;;;;;;;2078878;28;20127;-83
2021/05/14 05:42:34;;;;;;;2.22;1.77;;;;;;;;;;2077645;28;20137;-83
2021/05/14 05:43:35;;;;;;;3.25;2.30;;;;;;;;;;2078227;28;20060;-83
2021/05/14 05:44:36;;;;;;;2.35;2.05;;;;;;;;;;2079600;28;20041;-83
2021/05/14 05:45:37;;;;;;;2.67;1.90;;;;;;;;;;2078617;28;20072;-83
2021/05/14 05:46:39;;;;;;;2.35;2.00;;;;;;;;;;2078838;28;20064;-83
2021/05/14 05:47:40;;;;;;;2.45;2.17;;;;;;;;;;2078584;28;21526;-83
2021/05/14 05:48:45;;;;;;;2.28;2.08;;;;;;;;;;2080323;28;20984;-83
2021/05/14 05:49:46;;;;;;;2.50;2.30;;;;;;;;;;2070402;28;20045;-83
2021/05/14 05:50:48;;;;;;;2.17;1.98;;;;;;;;;;2069096;28;20042;-83
2021/05/14 05:51:49;;;;;;;2.60;2.22;;;;;;;;;;2072506;28;20073;-83
2021/05/14 05:52:53;;;;;;;2.85;2.20;;;;;;;;;;2072788;28;20525;-83
2021/05/14 05:53:54;;;;;;;2.33;2.13;;;;;;;;;;2067130;28;20272;-83
2021/05/14 05:54:55;;;;;;;2.53;2.33;;;;;;;;;;2065793;28;20037;-83
2021/05/14 05:55:56;;;;;;;2.67;2.33;;;;;;;;;;2066899;28;20158;-83
2021/05/14 05:56:59;;;;;;;4.60;2.67;;;;;;;;;;2062608;28;20233;-83
2021/05/14 05:58:07;;;;;;;4.40;2.25;;;;;;;;;;2068496;28;20575;-84
2021/05/14 05:59:12;;;;;;;2.38;2.17;;;;;;;;;;2077183;28;20360;-83
2021/05/14 06:00:13;;;;;;;2.45;2.25;;;;;;;;;;2074816;28;20169;-83
2021/05/14 06:01:14;;;;;;;2.40;2.20;;;;;;;;;;2076215;28;20033;-83
2021/05/14 06:02:15;;;;;;;2.75;2.10;;;;;;;;;;2077072;28;20052;-83
2021/05/14 06:03:16;;;;;;;2.38;2.17;;;;;;;;;;2070555;28;20034;-83
2021/05/14 06:04:17;;;;;;;;;;;;;;;;;;2074172;28;20113;-82
2021/05/14 06:05:19;;;;;;;2.63;2.33;;;;;;;;;;2073795;28;19920;-83
2021/05/14 06:06:20;;;;;;;2.78;2.58;;;;;;;;;;2074676;28;20092;-83
2021/05/14 06:07:21;;;;;;;2.85;2.58;;;;;;;;;;2072440;28;20033;-84
2021/05/14 06:08:24;;;;;;;2.47;2.28;;;;;;;;;;2069677;28;20041;-83
2021/05/14 06:09:25;;;;;;;2.90;2.30;;;;;;;;;;2069975;28;20041;-83
2021/05/14 06:10:26;;;;;;;;;;;;;;;;;;2075008;28;20053;-83
2021/05/14 06:11:27;;;;;;;4.70;2.67;;;;;;;;;;2068206;28;19909;-83
2021/05/14 06:12:28;;;;;;;2.60;2.40;;;;;;;;;;2065098;28;20042;-83
2021/05/14 06:13:30;;;;;;;2.60;2.40;;;;;;;;;;2065211;28;20120;-83
2021/05/14 06:14:31;;;;;;;2.72;2.30;;;;;;;;;;2065487;28;20086;-83